createdAt,value
2018-06-24T00:00:12.474Z,3.17
2018-06-24T00:02:40.931Z,9.53
2018-06-24T00:05:09.100Z,5.00
2018-06-24T00:07:37.091Z,4.93
2018-06-24T00:10:05.344Z,3.60
2018-06-24T00:12:33.315Z,2.40
2018-06-24T00:15:01.429Z,11.73
2018-06-24T00:17:29.458Z,4.97
2018-06-24T00:19:57.898Z,5.80
2018-06-24T00:22:27.660Z,1.77
2018-06-24T00:24:56.943Z,8.53
2018-06-24T00:27:25.119Z,6.93
2018-06-24T00:29:53.326Z,3.67
2018-06-24T00:32:24.270Z,2.17
2018-06-24T00:34:52.436Z,1.67
2018-06-24T00:37:20.390Z,4.30
2018-06-24T00:39:48.178Z,4.17
2018-06-24T00:42:16.275Z,2.30
2018-06-24T00:44:44.529Z,2.53
2018-06-24T00:47:12.451Z,5.33
2018-06-24T00:49:41.743Z,7.90
2018-06-24T00:52:09.904Z,2.67
2018-06-24T00:54:39.404Z,2.40
2018-06-24T00:57:07.763Z,5.30
2018-06-24T00:59:47.015Z,6.93
2018-06-24T01:02:16.051Z,2.93
2018-06-24T01:04:50.686Z,2.30
2018-06-24T01:07:18.820Z,3.40
2018-06-24T01:09:47.006Z,1.73
2018-06-24T01:12:14.816Z,2.07
2018-06-24T01:14:42.975Z,2.60
2018-06-24T01:17:16.372Z,2.23
2018-06-24T01:19:44.641Z,2.17
2018-06-24T01:22:12.530Z,3.90
2018-06-24T01:24:40.929Z,4.80
2018-06-24T01:27:09.033Z,3.43
2018-06-24T01:29:37.034Z,2.20
2018-06-24T01:32:04.956Z,5.90
2018-06-24T01:34:32.858Z,2.37
2018-06-24T01:37:00.814Z,3.07
2018-06-24T01:39:28.913Z,6.57
2018-06-24T01:41:56.986Z,5.63
2018-06-24T01:44:25.073Z,9.20
2018-06-24T01:46:54.434Z,10.00
2018-06-24T01:49:22.721Z,11.10
2018-06-24T01:51:50.873Z,9.10
2018-06-24T01:54:19.238Z,4.53
2018-06-24T01:56:47.157Z,4.20
2018-06-24T01:59:15.111Z,3.33
2018-06-24T02:01:43.879Z,5.77
2018-06-24T02:04:11.829Z,2.90
2018-06-24T02:06:39.848Z,7.90
2018-06-24T02:09:09.420Z,5.73
2018-06-24T02:11:38.162Z,6.17
2018-06-24T02:14:06.174Z,5.37
2018-06-24T02:16:34.302Z,5.00
2018-06-24T02:19:02.542Z,11.97
2018-06-24T02:21:30.694Z,10.23
2018-06-24T02:23:58.775Z,8.57
2018-06-24T02:26:27.527Z,10.63
2018-06-24T02:28:55.460Z,8.03
2018-06-24T02:31:23.640Z,7.77
2018-06-24T02:33:51.692Z,10.47
2018-06-24T02:38:54.168Z,6.77
2018-06-24T02:41:21.899Z,5.83
2018-06-24T02:43:49.869Z,5.03
2018-06-24T02:46:17.903Z,1.97
2018-06-24T02:48:45.783Z,4.30
2018-06-24T02:51:14.107Z,4.90
2018-06-24T02:53:42.010Z,6.10
2018-06-24T02:56:09.876Z,5.50
2018-06-24T02:58:37.661Z,10.87
2018-06-24T03:01:05.624Z,8.63
2018-06-24T03:03:33.688Z,5.43
2018-06-24T03:06:01.744Z,4.53
2018-06-24T03:08:29.749Z,14.50
2018-06-24T03:10:57.558Z,4.67
2018-06-24T03:13:25.398Z,5.50
2018-06-24T03:15:53.310Z,14.73
2018-06-24T03:18:21.436Z,14.43
2018-06-24T03:20:49.478Z,18.87
2018-06-24T03:23:17.315Z,13.70
2018-06-24T03:25:45.123Z,10.53
2018-06-24T03:28:13.110Z,8.97
2018-06-24T03:30:41.380Z,8.73
2018-06-24T03:33:09.378Z,2.93
2018-06-24T03:35:37.375Z,9.47
2018-06-24T03:38:05.162Z,12.03
2018-06-24T03:40:33.013Z,8.10
2018-06-24T03:43:00.844Z,7.27
2018-06-24T03:45:28.711Z,6.27
2018-06-24T03:47:56.890Z,9.47
2018-06-24T03:50:24.678Z,12.20
2018-06-24T03:52:52.697Z,13.73
2018-06-24T03:55:20.521Z,10.90
2018-06-24T03:57:48.563Z,7.60
2018-06-24T04:00:16.602Z,6.00
2018-06-24T04:02:44.968Z,6.23
2018-06-24T04:05:12.806Z,9.63
2018-06-24T04:07:40.651Z,5.93
2018-06-24T04:10:08.423Z,5.20
2018-06-24T04:12:36.563Z,9.33
2018-06-24T04:15:04.790Z,4.23
2018-06-24T04:17:32.809Z,7.03
2018-06-24T04:20:00.944Z,5.80
2018-06-24T04:22:29.463Z,7.80
2018-06-24T04:24:57.562Z,9.00
2018-06-24T04:27:25.609Z,10.70
2018-06-24T04:29:53.732Z,10.87
2018-06-24T04:32:21.768Z,5.50
2018-06-24T04:34:49.575Z,5.90
2018-06-24T04:37:17.639Z,9.60
2018-06-24T04:39:45.614Z,10.77
2018-06-24T04:42:13.627Z,10.40
2018-06-24T04:44:42.121Z,11.00
2018-06-24T04:47:10.636Z,18.57
2018-06-24T04:49:38.740Z,14.47
2018-06-24T04:52:06.804Z,19.53
2018-06-24T04:54:34.825Z,11.10
2018-06-24T04:57:02.980Z,7.27
2018-06-24T04:59:31.378Z,10.67
2018-06-24T05:01:59.561Z,18.47
2018-06-24T05:04:27.329Z,11.97
2018-06-24T05:06:55.302Z,9.30
2018-06-24T05:09:23.128Z,10.40
2018-06-24T05:11:51.040Z,6.90
2018-06-24T05:14:19.150Z,12.27
2018-06-24T05:16:47.103Z,5.30
2018-06-24T05:19:15.435Z,13.50
2018-06-24T05:21:43.513Z,7.50
2018-06-24T05:24:11.609Z,9.67
2018-06-24T05:26:40.294Z,18.80
2018-06-24T05:29:08.346Z,7.30
2018-06-24T05:31:36.600Z,8.80
2018-06-24T05:34:04.694Z,13.20
2018-06-24T05:36:32.656Z,10.90
2018-06-24T05:39:00.513Z,5.83
2018-06-24T05:41:28.627Z,6.07
2018-06-24T05:43:57.016Z,4.07
2018-06-24T05:46:25.206Z,4.97
2018-06-24T05:48:53.174Z,10.53
2018-06-24T05:51:21.427Z,9.50
2018-06-24T05:53:49.462Z,4.90
2018-06-24T05:56:17.717Z,8.77
2018-06-24T05:58:45.622Z,9.33
2018-06-24T06:01:13.477Z,5.13
2018-06-24T06:03:41.346Z,6.40
2018-06-24T06:06:09.423Z,4.97
2018-06-24T06:08:37.431Z,12.40
2018-06-24T06:11:05.368Z,11.80
2018-06-24T06:13:33.528Z,11.77
2018-06-24T06:16:01.582Z,4.07
2018-06-24T06:18:29.639Z,6.63
2018-06-24T06:20:57.966Z,3.57
2018-06-24T06:23:25.966Z,6.17
2018-06-24T06:25:54.200Z,8.97
2018-06-24T06:28:22.146Z,4.20
2018-06-24T06:30:50.189Z,7.83
2018-06-24T06:33:18.069Z,3.63
2018-06-24T06:35:45.949Z,9.40
2018-06-24T06:38:14.057Z,6.30
2018-06-24T06:40:41.891Z,5.23
2018-06-24T06:43:10.022Z,11.00
2018-06-24T06:45:38.354Z,4.23
2018-06-24T06:48:06.703Z,4.10
2018-06-24T06:50:34.606Z,4.03
2018-06-24T06:53:02.716Z,8.60
2018-06-24T06:55:31.408Z,2.17
2018-06-24T06:57:59.338Z,4.77
2018-06-24T07:00:27.288Z,3.57
2018-06-24T07:02:55.170Z,10.10
2018-06-24T07:05:23.192Z,4.87
2018-06-24T07:07:51.282Z,6.03
2018-06-24T07:10:19.138Z,3.23
2018-06-24T07:12:47.470Z,6.83
2018-06-24T07:15:15.713Z,6.70
2018-06-24T07:17:43.779Z,6.30
2018-06-24T07:20:12.510Z,4.50
2018-06-24T07:22:40.593Z,3.53
2018-06-24T07:25:08.689Z,8.97
2018-06-24T07:27:36.772Z,4.13
2018-06-24T07:30:06.012Z,4.37
2018-06-24T07:32:33.991Z,7.53
2018-06-24T07:35:01.761Z,2.60
2018-06-24T07:37:29.519Z,6.60
2018-06-24T07:39:57.372Z,4.40
2018-06-24T07:42:25.271Z,3.07
2018-06-24T07:44:52.993Z,2.20
2018-06-24T07:47:20.724Z,5.30
2018-06-24T07:49:48.864Z,2.60
2018-06-24T07:52:17.216Z,3.57
2018-06-24T07:54:45.185Z,1.70
2018-06-24T07:57:13.207Z,3.40
2018-06-24T07:59:41.230Z,7.33
2018-06-24T08:02:09.738Z,6.70
2018-06-24T08:04:38.122Z,2.60
2018-06-24T08:07:06.148Z,10.17
2018-06-24T08:09:33.976Z,3.57
2018-06-24T08:12:02.048Z,1.37
2018-06-24T08:14:29.992Z,1.47
2018-06-24T08:16:57.929Z,6.20
2018-06-24T08:19:25.678Z,1.10
2018-06-24T08:21:53.387Z,2.50
2018-06-24T08:24:21.382Z,3.37
2018-06-24T08:26:50.217Z,2.10
2018-06-24T08:29:18.242Z,1.77
2018-06-24T08:31:46.144Z,3.37
2018-06-24T08:34:13.961Z,4.60
2018-06-24T08:36:42.013Z,3.27
2018-06-24T08:39:11.168Z,3.83
2018-06-24T08:41:39.707Z,3.73
2018-06-24T08:44:08.246Z,2.47
2018-06-24T08:46:36.370Z,3.07
2018-06-24T08:49:05.507Z,3.87
2018-06-24T08:51:33.587Z,1.87
2018-06-24T08:54:02.899Z,5.27
2018-06-24T08:56:31.293Z,1.47
2018-06-24T08:58:59.616Z,3.93
2018-06-24T09:01:27.567Z,4.77
2018-06-24T09:03:58.124Z,1.73
2018-06-24T09:06:27.503Z,2.20
2018-06-24T09:08:56.771Z,2.73
2018-06-24T09:11:25.626Z,1.77
2018-06-24T09:13:54.393Z,2.23
2018-06-24T09:16:22.824Z,1.70
2018-06-24T09:18:51.016Z,4.80
2018-06-24T09:21:19.370Z,3.13
2018-06-24T09:23:47.602Z,2.37
2018-06-24T09:26:16.058Z,2.13
2018-06-24T09:28:44.817Z,6.73
2018-06-24T09:31:12.839Z,4.90
2018-06-24T09:33:41.300Z,1.60
2018-06-24T09:36:09.352Z,2.90
2018-06-24T09:38:37.764Z,0.90
2018-06-24T09:41:06.068Z,1.83
2018-06-24T09:43:33.948Z,1.13
2018-06-24T09:46:02.402Z,1.17
2018-06-24T09:48:30.361Z,0.90
2018-06-24T09:50:58.536Z,1.27
2018-06-24T09:53:26.492Z,6.20
2018-06-24T09:55:54.471Z,3.23
2018-06-24T09:58:22.380Z,1.13
2018-06-24T10:00:50.599Z,1.50
2018-06-24T10:03:18.819Z,3.93
2018-06-24T10:05:47.155Z,1.33
2018-06-24T10:08:15.357Z,5.60
2018-06-24T10:10:43.712Z,1.10
2018-06-24T10:13:11.530Z,0.87
2018-06-24T10:15:39.604Z,1.20
2018-06-24T10:18:08.582Z,2.60
2018-06-24T10:20:38.044Z,2.17
2018-06-24T10:23:06.465Z,1.37
2018-06-24T10:25:36.215Z,0.90
2018-06-24T10:28:04.728Z,1.43
2018-06-24T10:30:33.236Z,0.90
2018-06-24T10:33:02.498Z,1.20
2018-06-24T10:35:30.998Z,3.17
2018-06-24T10:38:07.948Z,2.20
2018-06-24T10:40:36.307Z,1.00
2018-06-24T10:43:04.387Z,1.30
2018-06-24T10:45:33.088Z,1.23
2018-06-24T10:50:45.039Z,2.33
2018-06-24T10:53:15.883Z,1.43
2018-06-24T10:55:44.367Z,1.30
2018-06-24T10:58:12.933Z,3.53
2018-06-24T11:00:45.638Z,4.10
2018-06-24T11:03:15.710Z,2.03
2018-06-24T11:05:46.978Z,2.67
2018-06-24T11:08:17.643Z,2.60
2018-06-24T11:10:45.834Z,2.80
2018-06-24T11:13:14.419Z,2.33
2018-06-24T11:15:42.476Z,1.20
2018-06-24T11:18:20.725Z,7.37
2018-06-24T11:20:50.120Z,4.73
2018-06-24T11:23:21.601Z,3.23
2018-06-24T11:26:06.096Z,2.07
2018-06-24T11:28:37.651Z,2.57
2018-06-24T11:31:06.481Z,2.97
2018-06-24T11:33:35.084Z,2.50
2018-06-24T11:36:04.519Z,0.90
2018-06-24T11:38:34.049Z,2.37
2018-06-24T11:41:12.549Z,2.10
2018-06-24T11:43:45.784Z,2.00
2018-06-24T11:46:24.419Z,2.70
2018-06-24T11:48:52.321Z,1.00
2018-06-24T11:51:28.715Z,1.23
2018-06-24T11:54:01.496Z,1.10
2018-06-24T11:56:39.560Z,2.27
2018-06-24T12:01:46.957Z,1.90
2018-06-24T12:04:29.258Z,2.90
2018-06-24T12:06:58.231Z,1.90
2018-06-24T12:12:18.618Z,3.63
2018-06-24T12:14:46.934Z,1.30
2018-06-24T12:17:15.475Z,0.80
2018-06-24T12:19:43.858Z,1.73
2018-06-24T12:22:12.518Z,3.93
2018-06-24T12:24:40.376Z,1.93
2018-06-24T12:27:08.196Z,1.67
2018-06-24T12:29:36.092Z,1.20
2018-06-24T12:32:04.213Z,3.80
2018-06-24T12:34:32.637Z,5.23
2018-06-24T12:37:01.879Z,1.87
2018-06-24T12:39:30.035Z,2.23
2018-06-24T12:41:58.289Z,1.87
2018-06-24T12:44:26.397Z,1.40
2018-06-24T12:46:54.343Z,2.13
2018-06-24T12:49:22.189Z,9.10
2018-06-24T12:51:51.376Z,2.20
2018-06-24T12:54:19.136Z,2.27
2018-06-24T12:56:47.194Z,1.30
2018-06-24T12:59:15.156Z,2.90
2018-06-24T13:01:44.145Z,1.53
2018-06-24T13:04:12.596Z,5.20
2018-06-24T13:06:40.272Z,5.37
2018-06-24T13:09:08.962Z,6.63
2018-06-24T13:11:36.799Z,4.80
2018-06-24T13:14:04.432Z,3.83
2018-06-24T13:16:32.072Z,1.20
2018-06-24T13:18:59.800Z,4.17
2018-06-24T13:21:27.368Z,2.40
2018-06-24T13:23:54.900Z,5.33
2018-06-24T13:26:22.549Z,1.50
2018-06-24T13:28:51.023Z,4.23
2018-06-24T13:31:18.602Z,1.37
2018-06-24T13:33:48.607Z,3.10
2018-06-24T13:36:17.730Z,3.67
2018-06-24T13:38:45.665Z,1.57
2018-06-24T13:41:13.810Z,2.60
2018-06-24T13:43:41.812Z,3.50
2018-06-24T13:46:09.651Z,1.40
2018-06-24T13:48:37.724Z,1.63
2018-06-24T13:51:05.741Z,1.20
2018-06-24T13:53:34.071Z,5.10
2018-06-24T13:56:03.217Z,2.80
2018-06-24T13:58:32.469Z,1.53
2018-06-24T14:01:00.646Z,3.63
2018-06-24T14:03:29.040Z,1.27
2018-06-24T14:05:57.109Z,3.33
2018-06-24T14:08:25.151Z,1.43
2018-06-24T14:10:53.507Z,1.83
2018-06-24T14:13:21.394Z,1.53
2018-06-24T14:15:49.558Z,1.50
2018-06-24T14:18:17.815Z,1.73
2018-06-24T14:20:45.822Z,2.90
2018-06-24T14:23:13.885Z,3.10
2018-06-24T14:25:41.718Z,1.83
2018-06-24T14:28:09.672Z,3.27
2018-06-24T14:30:37.506Z,2.13
2018-06-24T14:33:05.408Z,2.03
2018-06-24T14:35:33.505Z,1.77
2018-06-24T14:38:02.142Z,3.10
2018-06-24T14:40:31.773Z,1.57
2018-06-24T14:42:59.930Z,3.70
2018-06-24T14:45:27.920Z,1.60
2018-06-24T14:47:56.051Z,3.00
2018-06-24T14:50:24.049Z,3.20
2018-06-24T14:52:52.527Z,1.40
2018-06-24T14:55:20.615Z,2.20
2018-06-24T14:57:50.167Z,2.63
2018-06-24T15:00:18.257Z,1.33
2018-06-24T15:02:47.905Z,2.80
2018-06-24T15:05:15.858Z,2.60
2018-06-24T15:07:43.948Z,1.30
2018-06-24T15:10:12.120Z,2.73
2018-06-24T15:12:40.332Z,2.03
2018-06-24T15:15:08.239Z,1.97
2018-06-24T15:17:36.258Z,1.77
2018-06-24T15:20:04.371Z,4.70
2018-06-24T15:22:32.340Z,1.40
2018-06-24T15:25:00.449Z,1.53
2018-06-24T15:27:28.247Z,1.60
2018-06-24T15:29:56.467Z,3.17
2018-06-24T15:32:25.720Z,1.40
2018-06-24T15:34:54.565Z,2.90
2018-06-24T15:37:22.920Z,2.30
2018-06-24T15:39:51.529Z,2.90
2018-06-24T15:42:19.970Z,1.63
2018-06-24T15:44:47.948Z,2.90
2018-06-24T15:47:16.082Z,4.67
2018-06-24T15:49:44.278Z,3.40
2018-06-24T15:52:14.515Z,3.90
2018-06-24T15:54:43.544Z,1.73
2018-06-24T15:57:12.724Z,1.43
2018-06-24T15:59:41.094Z,1.60
2018-06-24T16:02:09.941Z,2.27
2018-06-24T16:04:37.952Z,3.00
2018-06-24T16:07:06.366Z,1.73
2018-06-24T16:09:34.485Z,2.27
2018-06-24T16:12:03.645Z,1.83
2018-06-24T16:14:33.391Z,2.10
2018-06-24T16:17:01.633Z,2.43
2018-06-24T16:19:29.795Z,1.30
2018-06-24T16:22:01.461Z,2.30
2018-06-24T16:44:10.933Z,2.25
2018-06-24T16:51:35.297Z,2.40
2018-06-24T17:01:25.444Z,3.20
2018-06-24T17:03:53.873Z,4.83
2018-06-24T17:06:22.242Z,2.80
2018-06-24T17:16:13.273Z,4.03
2018-06-24T17:18:41.282Z,4.30
2018-06-24T17:21:09.584Z,6.20
2018-06-24T17:23:37.449Z,2.00
2018-06-24T17:26:05.421Z,3.03
2018-06-24T17:28:33.335Z,3.63
2018-06-24T17:31:01.277Z,7.50
2018-06-24T17:33:29.555Z,3.50
2018-06-24T17:35:57.371Z,4.60
2018-06-24T17:38:26.206Z,7.87
2018-06-24T17:40:54.363Z,6.43
2018-06-24T17:43:22.183Z,2.53
2018-06-24T17:45:50.113Z,2.87
2018-06-24T17:48:17.993Z,3.30
2018-06-24T17:53:13.569Z,5.20
2018-06-24T17:58:08.718Z,5.43
2018-06-24T18:00:36.712Z,5.50
2018-06-24T18:03:05.019Z,4.03
2018-06-24T18:05:33.319Z,8.45
2018-06-24T18:08:01.448Z,2.90
2018-06-24T18:10:29.448Z,1.97
2018-06-24T18:12:58.738Z,3.70
2018-06-24T18:15:26.984Z,3.80
2018-06-24T18:17:55.104Z,2.80
2018-06-24T18:20:23.354Z,5.57
2018-06-24T18:22:51.345Z,5.90
2018-06-24T18:25:19.719Z,3.97
2018-06-24T18:27:47.646Z,3.83
2018-06-24T18:30:15.473Z,5.83
2018-06-24T18:32:48.270Z,6.53
2018-06-24T18:35:16.434Z,4.57
2018-06-24T18:37:44.746Z,6.53
2018-06-24T18:40:12.797Z,6.57
2018-06-24T18:42:40.661Z,5.33
2018-06-24T18:45:08.782Z,7.07
2018-06-24T18:47:36.825Z,5.73
2018-06-24T18:50:05.351Z,7.43
2018-06-24T18:52:33.157Z,2.60
2018-06-24T18:55:00.967Z,3.10
2018-06-24T18:57:29.019Z,5.13
2018-06-24T18:59:57.513Z,4.47
2018-06-24T19:02:26.226Z,6.17
2018-06-24T19:04:54.935Z,7.90
2018-06-24T19:07:22.716Z,3.40
2018-06-24T19:09:50.893Z,2.83
2018-06-24T19:12:18.676Z,6.07
2018-06-24T19:14:46.806Z,4.73
2018-06-24T19:17:14.740Z,5.10
2018-06-24T19:19:45.392Z,5.53
2018-06-24T19:22:13.637Z,6.20
2018-06-24T19:24:41.915Z,11.50
2018-06-24T19:27:10.068Z,4.20
2018-06-24T19:29:38.330Z,6.30
2018-06-24T19:32:07.446Z,5.37
2018-06-24T19:34:36.936Z,5.30
2018-06-24T19:37:05.002Z,10.33
2018-06-24T19:39:33.209Z,5.20
2018-06-24T19:42:01.677Z,6.00
2018-06-24T19:44:30.056Z,6.97
2018-06-24T19:46:58.227Z,4.90
2018-06-24T19:49:26.441Z,4.90
2018-06-24T19:51:54.414Z,6.37
2018-06-24T19:54:22.757Z,6.40
2018-06-24T19:56:51.611Z,17.00
2018-06-24T19:59:19.935Z,15.70
2018-06-24T20:01:48.266Z,9.93
2018-06-24T20:04:16.176Z,8.93
2018-06-24T20:06:44.248Z,9.60
2018-06-24T20:09:12.500Z,11.17
2018-06-24T20:11:40.351Z,6.53
2018-06-24T20:14:08.297Z,11.63
2018-06-24T20:16:36.778Z,9.40
2018-06-24T20:19:06.316Z,10.27
2018-06-24T20:21:35.592Z,12.40
2018-06-24T20:24:04.125Z,8.03
2018-06-24T20:26:32.460Z,15.67
2018-06-24T20:29:00.281Z,9.07
2018-06-24T20:31:30.092Z,11.17
2018-06-24T20:33:58.454Z,15.27
2018-06-24T20:36:27.036Z,6.30
2018-06-24T20:38:55.634Z,10.37
2018-06-24T20:41:23.968Z,7.30
2018-06-24T20:43:52.819Z,13.03
2018-06-24T20:46:21.105Z,9.50
2018-06-24T20:48:51.805Z,8.87
2018-06-24T20:51:19.975Z,19.43
2018-06-24T20:53:50.573Z,13.00
2018-06-24T20:56:21.050Z,21.30
2018-06-24T20:58:49.097Z,11.00
2018-06-24T21:01:18.118Z,10.97
2018-06-24T21:03:46.233Z,8.57
2018-06-24T21:06:14.362Z,6.93
2018-06-24T21:08:44.650Z,10.73
2018-06-24T21:11:13.867Z,12.33
2018-06-24T21:13:41.708Z,12.90
2018-06-24T21:16:09.715Z,9.87
2018-06-24T21:18:37.632Z,15.30
2018-06-24T21:21:07.202Z,14.60
2018-06-24T21:23:35.428Z,10.30
2018-06-24T21:26:03.269Z,9.00
2018-06-24T21:28:31.063Z,9.30
2018-06-24T21:30:58.889Z,28.40
2018-06-24T21:33:26.935Z,13.93
2018-06-24T21:35:55.371Z,11.80
2018-06-24T21:38:23.842Z,9.90
2018-06-24T21:40:51.933Z,11.60
2018-06-24T21:43:19.905Z,13.43
2018-06-24T21:45:47.802Z,19.67
2018-06-24T21:48:15.904Z,11.33
2018-06-24T21:50:43.912Z,8.00
2018-06-24T21:53:11.901Z,11.07
2018-06-24T21:55:40.147Z,20.33
2018-06-24T21:58:08.731Z,21.27
2018-06-24T22:00:36.609Z,15.80
2018-06-24T22:03:04.907Z,14.40
2018-06-24T22:05:33.693Z,13.70
2018-06-24T22:08:01.590Z,14.90
2018-06-24T22:10:29.727Z,11.83
2018-06-24T22:12:58.392Z,13.00
2018-06-24T22:15:28.609Z,14.37
2018-06-24T22:17:56.709Z,18.03
2018-06-24T22:20:24.667Z,12.63
2018-06-24T22:22:52.542Z,9.23
2018-06-24T22:25:20.717Z,12.67
2018-06-24T22:27:48.840Z,15.37
2018-06-24T22:30:16.988Z,14.30
2018-06-24T22:32:45.251Z,12.87
2018-06-24T22:35:13.250Z,15.67
2018-06-24T22:37:41.477Z,7.93
2018-06-24T22:40:09.545Z,13.03
2018-06-24T22:42:37.556Z,18.30
2018-06-24T22:45:05.953Z,12.77
2018-06-24T22:47:33.911Z,15.57
2018-06-24T22:50:01.705Z,11.10
2018-06-24T22:52:29.675Z,21.40
2018-06-24T22:54:57.827Z,10.70
2018-06-24T22:57:25.790Z,18.53
2018-06-24T23:00:24.874Z,13.13
2018-06-24T23:02:52.956Z,16.23
2018-06-24T23:05:20.680Z,12.50
2018-06-24T23:07:48.638Z,14.30
2018-06-24T23:10:16.418Z,14.00
2018-06-24T23:12:44.473Z,12.87
2018-06-24T23:15:12.677Z,20.60
2018-06-24T23:17:40.475Z,13.70
2018-06-24T23:20:09.000Z,15.67
2018-06-24T23:22:37.111Z,14.87
2018-06-24T23:25:05.971Z,23.27
2018-06-24T23:27:33.893Z,25.30
2018-06-24T23:30:01.693Z,16.07
2018-06-24T23:32:29.768Z,23.03
2018-06-24T23:35:01.590Z,20.37
2018-06-24T23:37:34.265Z,23.20
2018-06-24T23:40:02.209Z,19.93
2018-06-24T23:42:30.266Z,18.90
2018-06-24T23:44:58.233Z,24.43
2018-06-24T23:47:26.056Z,28.10
2018-06-24T23:49:54.653Z,38.77
2018-06-24T23:52:22.539Z,23.70
2018-06-24T23:54:50.456Z,25.93
2018-06-24T23:57:18.403Z,22.90
2018-06-24T23:59:46.300Z,19.20
